Time;durP1;ratioP1;P1;durP2;ratioP2;P2;SDS_P1;SDS_P2;PMS_P1;PMS_P2;Temp;Humidity;BMP_temperature;BMP_pressure;BME280_temperature;BME280_humidity;BME280_pressure;Samples;Min_cycle;Max_cycle;Signal;HPM_P1;HPM_P2
2022/04/09 00:02:07;;;;;;;9.55;2.80;;;;;;;2.04;100.00;98487.44;5082110;28;20366;-79
2022/04/09 00:04:32;;;;;;;10.50;2.47;;;;;;;1.93;100.00;98499.13;5080443;28;20115;-78
2022/04/09 00:06:57;;;;;;;14.88;2.72;;;;;;;1.87;100.00;98497.50;5079563;28;20032;-78
2022/04/09 00:09:23;;;;;;;11.45;2.53;;;;;;;1.86;100.00;98493.13;5078082;28;20382;-78
2022/04/09 00:11:48;;;;;;;11.32;2.33;;;;;;;1.87;100.00;98504.53;5077853;28;20444;-77
2022/04/09 00:14:13;;;;;;;11.43;3.30;;;;;;;1.93;100.00;98498.25;5076478;28;20424;-78
2022/04/09 00:16:39;;;;;;;9.60;2.25;;;;;;;1.94;100.00;98510.50;5076607;28;20032;-78
2022/04/09 00:19:05;;;;;;;9.18;2.45;;;;;;;1.93;100.00;98519.31;5077575;28;20056;-78
2022/04/09 00:21:31;;;;;;;6.50;2.53;;;;;;;1.87;100.00;98521.19;5076460;28;20025;-78
2022/04/09 00:23:57;;;;;;;15.40;2.80;;;;;;;1.89;100.00;98518.50;5078662;28;20069;-78
2022/04/09 00:26:22;;;;;;;8.48;2.80;;;;;;;1.89;100.00;98524.63;5075695;28;20493;-78
2022/04/09 00:28:47;;;;;;;10.63;2.70;;;;;;;1.84;100.00;98523.00;5077219;28;20029;-78
2022/04/09 00:31:12;;;;;;;10.15;2.47;;;;;;;1.88;100.00;98524.69;5075743;28;20074;-78
2022/04/09 00:33:38;;;;;;;10.18;2.88;;;;;;;1.86;100.00;98535.22;5076977;28;20500;-78
2022/04/09 00:36:03;;;;;;;10.80;2.75;;;;;;;1.87;100.00;98531.72;5076877;28;20097;-78
2022/04/09 00:38:30;;;;;;;10.48;2.50;;;;;;;1.84;100.00;98546.69;5075656;28;20044;-78
2022/04/09 00:40:56;;;;;;;9.38;2.65;;;;;;;1.91;100.00;98548.28;5075628;28;20035;-78
2022/04/09 00:43:21;;;;;;;9.75;2.55;;;;;;;1.92;100.00;98542.13;5075877;28;20527;-78
2022/04/09 00:45:48;;;;;;;14.45;3.00;;;;;;;1.86;100.00;98551.03;5075965;28;20025;-78
2022/04/09 00:48:13;;;;;;;11.20;3.00;;;;;;;1.96;100.00;98553.47;5075914;28;20020;-78
2022/04/09 00:50:39;;;;;;;11.18;2.80;;;;;;;1.84;100.00;98557.22;5075729;28;20074;-78
2022/04/09 00:53:07;;;;;;;7.50;2.28;;;;;;;1.88;100.00;98564.16;5077791;28;20020;-78
2022/04/09 00:58:20;;;;;;;9.80;2.65;;;;;;;1.78;100.00;98582.78;5077211;28;20055;-78
2022/04/09 01:00:45;;;;;;;6.85;2.25;;;;;;;1.79;100.00;98581.03;5076604;28;20468;-78
2022/04/09 01:03:12;;;;;;;10.55;2.63;;;;;;;1.76;100.00;98591.59;5077411;28;20103;-78
2022/04/09 01:05:38;;;;;;;16.85;2.80;;;;;;;1.71;100.00;98589.06;5076028;28;20048;-78
2022/04/09 01:08:04;;;;;;;16.48;2.47;;;;;;;1.80;100.00;98595.91;5075839;28;20024;-78
2022/04/09 01:10:30;;;;;;;10.52;2.63;;;;;;;1.83;100.00;98593.19;5075615;28;20050;-78
2022/04/09 01:12:55;;;;;;;13.98;3.05;;;;;;;1.73;100.00;98596.94;5076162;28;20016;-78
2022/04/09 01:15:21;;;;;;;9.10;2.63;;;;;;;1.78;100.00;98601.19;5074928;28;20024;-78
2022/04/09 01:17:46;;;;;;;10.60;2.20;;;;;;;1.78;100.00;98611.72;5075898;28;20032;-78
2022/04/09 01:20:20;;;;;;;10.40;2.83;;;;;;;1.76;100.00;98610.91;5074439;28;20078;-78
2022/04/09 01:22:45;;;;;;;14.18;2.60;;;;;;;1.76;100.00;98617.91;5075706;28;20123;-78
2022/04/09 01:25:10;;;;;;;12.20;2.75;;;;;;;1.78;100.00;98621.38;5075762;28;20469;-78
2022/04/09 01:27:36;;;;;;;14.43;3.08;;;;;;;1.77;100.00;98630.19;5075543;28;20107;-78
2022/04/09 01:30:03;;;;;;;10.35;2.53;;;;;;;1.81;100.00;98636.25;5075957;28;20029;-78
2022/04/09 01:32:29;;;;;;;14.07;2.97;;;;;;;1.80;100.00;98632.78;5076803;28;20077;-78
2022/04/09 01:34:54;;;;;;;10.70;2.80;;;;;;;1.79;100.00;98644.19;5077295;28;20502;-78
2022/04/09 01:37:19;;;;;;;12.85;2.70;;;;;;;1.89;100.00;98640.47;5077217;28;20031;-78
2022/04/09 01:39:44;;;;;;;12.02;2.60;;;;;;;1.96;100.00;98641.19;5075444;28;20528;-78
2022/04/09 01:42:10;;;;;;;17.25;3.38;;;;;;;1.86;100.00;98656.31;5073163;28;20106;-78
2022/04/09 01:44:36;;;;;;;10.18;2.13;;;;;;;1.85;100.00;98651.97;5073581;28;20432;-78
2022/04/09 01:47:05;;;;;;;15.00;3.10;;;;;;;1.87;100.00;98665.97;5075581;28;20024;-78
2022/04/09 01:49:31;;;;;;;12.57;2.53;;;;;;;1.86;100.00;98661.59;5075343;28;20044;-78
2022/04/09 01:51:56;;;;;;;14.70;2.60;;;;;;;1.85;100.00;98665.13;5074685;28;20028;-78
2022/04/09 01:54:21;;;;;;;6.65;2.10;;;;;;;1.84;100.00;98671.28;5075134;28;20492;-78
2022/04/09 01:56:46;;;;;;;11.85;2.55;;;;;;;1.81;100.00;98679.22;5074963;28;20034;-78
2022/04/09 01:59:12;;;;;;;10.57;2.55;;;;;;;1.85;100.00;98690.56;5073830;28;20473;-78
2022/04/09 02:01:37;;;;;;;12.38;3.15;;;;;;;1.83;100.00;98689.75;5074531;28;20020;-78
2022/04/09 02:04:03;;;;;;;12.48;3.10;;;;;;;1.87;100.00;98691.41;5075498;28;20024;-78
2022/04/09 02:06:28;;;;;;;8.85;3.00;;;;;;;1.84;100.00;98699.34;5073466;28;20031;-78
2022/04/09 02:08:54;;;;;;;11.00;2.85;;;;;;;1.86;100.00;98690.53;5074586;28;20024;-78
2022/04/09 02:11:20;;;;;;;13.10;2.95;;;;;;;1.85;100.00;98701.97;5076578;28;20043;-79
2022/04/09 02:13:45;;;;;;;10.98;2.65;;;;;;;1.76;100.00;98696.88;5077273;28;20102;-78
2022/04/09 02:16:10;;;;;;;15.93;2.97;;;;;;;1.84;100.00;98712.53;5075048;28;20402;-79
2022/04/09 02:18:36;;;;;;;12.18;2.95;;;;;;;1.86;100.00;98718.63;5075011;28;20056;-78
2022/04/09 02:21:01;;;;;;;7.85;2.90;;;;;;;1.87;100.00;98715.97;5072913;28;20016;-78
2022/04/09 02:23:26;;;;;;;13.50;3.00;;;;;;;1.96;100.00;98714.06;5074158;28;20036;-78
2022/04/09 02:25:52;;;;;;;12.68;2.90;;;;;;;1.88;100.00;98725.59;5074245;28;20363;-78
2022/04/09 02:28:17;;;;;;;10.80;2.60;;;;;;;1.88;100.00;98722.13;5074564;28;20036;-78
2022/04/09 02:30:43;;;;;;;14.93;3.00;;;;;;;1.96;100.00;98735.97;5073386;28;20024;-78
2022/04/09 02:33:08;;;;;;;9.63;2.53;;;;;;;2.02;100.00;98740.25;5074475;28;20021;-78
2022/04/09 02:35:33;;;;;;;8.07;2.10;;;;;;;1.97;100.00;98744.75;5073610;28;20481;-78
2022/04/09 02:37:58;;;;;;;10.50;2.90;;;;;;;2.00;100.00;98749.94;5074708;28;20028;-78
2022/04/09 02:40:24;;;;;;;11.98;2.70;;;;;;;1.92;100.00;98754.50;5073000;28;20031;-78
2022/04/09 02:42:50;;;;;;;14.02;2.60;;;;;;;1.85;100.00;98754.63;5074800;28;20036;-78
2022/04/09 02:45:15;;;;;;;10.95;3.05;;;;;;;1.88;100.00;98758.97;5073920;28;20027;-78
2022/04/09 02:47:41;;;;;;;11.73;2.60;;;;;;;1.88;100.00;98765.06;5077043;28;20539;-79
2022/04/09 02:50:07;;;;;;;15.32;2.85;;;;;;;1.95;100.00;98772.88;5077316;28;20016;-78
2022/04/09 02:52:34;;;;;;;13.40;2.70;;;;;;;1.97;100.00;98784.22;5077059;28;20048;-78
2022/04/09 02:55:00;;;;;;;9.70;2.70;;;;;;;2.04;100.00;98784.97;5076969;28;20025;-78
2022/04/09 02:57:25;;;;;;;11.75;3.00;;;;;;;2.05;100.00;98782.31;5072503;28;20058;-78
2022/04/09 02:59:50;;;;;;;15.20;3.15;;;;;;;2.12;100.00;98786.56;5072412;28;20092;-78
2022/04/09 03:02:15;;;;;;;9.57;2.70;;;;;;;2.10;100.00;98791.00;5074318;28;20473;-78
2022/04/09 03:04:41;;;;;;;14.00;2.72;;;;;;;2.08;100.00;98795.44;5072888;28;20024;-78
2022/04/09 03:07:06;;;;;;;7.80;2.78;;;;;;;2.01;100.00;98792.03;5082518;22;20033;-83
2022/04/09 03:09:32;;;;;;;8.70;2.40;;;;;;;1.94;100.00;98802.72;5072276;28;20123;-82
2022/04/09 03:11:57;;;;;;;15.52;3.45;;;;;;;1.98;100.00;98807.03;5073878;28;20031;-81
2022/04/09 03:14:22;;;;;;;10.45;2.75;;;;;;;1.96;100.00;98811.47;5076129;28;20465;-82
2022/04/09 03:16:48;;;;;;;7.38;2.53;;;;;;;1.94;100.00;98819.38;5077690;28;20431;-83
2022/04/09 03:19:13;;;;;;;14.50;2.80;;;;;;;1.92;100.00;98821.19;5077092;28;20016;-84
2022/04/09 03:21:38;;;;;;;14.02;3.00;;;;;;;1.96;100.00;98816.75;5077635;28;20544;-82
2022/04/09 03:24:04;;;;;;;9.50;3.33;;;;;;;2.04;100.00;98827.97;5076175;28;20016;-83
2022/04/09 03:26:29;;;;;;;18.88;3.50;;;;;;;2.05;100.00;98821.81;5076115;28;20016;-84
2022/04/09 03:28:54;;;;;;;14.95;3.83;;;;;;;2.10;100.00;98817.34;5076267;28;20543;-81
2022/04/09 03:31:20;;;;;;;9.73;3.30;;;;;;;2.06;100.00;98836.72;5076114;28;20021;-83
2022/04/09 03:33:47;;;;;;;9.75;2.85;;;;;;;2.12;100.00;98846.25;5075926;28;20027;-84
2022/04/09 03:36:13;;;;;;;12.20;3.50;;;;;;;2.14;100.00;98844.47;5075901;28;20016;-83
2022/04/09 03:38:41;;;;;;;12.60;2.88;;;;;;;2.18;100.00;98846.16;5076016;28;20024;-84
2022/04/09 03:41:06;;;;;;;9.80;3.13;;;;;;;2.12;100.00;98851.53;5076714;28;20502;-83
2022/04/09 03:43:32;;;;;;;8.82;3.03;;;;;;;2.22;100.00;98857.50;5076417;28;20036;-83
2022/04/09 03:45:57;;;;;;;14.25;2.75;;;;;;;2.26;100.00;98858.31;5075668;28;20048;-84
2022/04/09 03:48:22;;;;;;;11.75;2.67;;;;;;;2.33;100.00;98855.53;5076882;28;20576;-83
2022/04/09 03:50:48;;;;;;;12.02;3.20;;;;;;;2.25;100.00;98862.72;5075952;28;20032;-82
2022/04/09 03:53:19;;;;;;;8.55;2.90;;;;;;;2.25;100.00;98861.84;5077029;28;20024;-84
2022/04/09 03:55:45;;;;;;;13.13;3.25;;;;;;;2.29;100.00;98874.06;5075631;28;20089;-83
2022/04/09 03:58:11;;;;;;;9.88;3.10;;;;;;;2.29;100.00;98874.06;5075601;28;20424;-84
2022/04/09 04:00:37;;;;;;;12.13;3.55;;;;;;;2.32;100.00;98874.88;5077106;28;20037;-84
2022/04/09 04:03:02;;;;;;;12.50;3.85;;;;;;;2.26;100.00;98882.03;5076716;28;20051;-83
2022/04/09 04:05:27;;;;;;;9.93;3.67;;;;;;;2.33;100.00;98889.78;5075373;28;20028;-84
2022/04/09 04:07:53;;;;;;;13.98;3.60;;;;;;;2.32;100.00;98890.66;5076894;28;20033;-83
2022/04/09 04:10:19;;;;;;;11.38;3.67;;;;;;;2.30;100.00;98897.75;5076362;28;20016;-83
2022/04/09 04:12:44;;;;;;;13.80;3.63;;;;;;;2.29;100.00;98888.13;5077034;28;20032;-83
2022/04/09 04:15:09;;;;;;;10.18;3.10;;;;;;;2.27;100.00;98896.94;5075727;28;20470;-83
2022/04/09 04:17:43;;;;;;;14.93;3.42;;;;;;;2.30;100.00;98895.09;5076216;28;20493;-83
2022/04/09 04:20:09;;;;;;;11.38;3.65;;;;;;;2.30;100.00;98904.75;5076639;28;20016;-83
2022/04/09 04:22:34;;;;;;;8.95;2.83;;;;;;;2.24;100.00;98916.31;5075668;28;20028;-83
2022/04/09 04:25:00;;;;;;;10.90;3.42;;;;;;;2.15;100.00;98919.09;5076209;28;20031;-82
2022/04/09 04:27:26;;;;;;;8.52;3.10;;;;;;;2.14;100.00;98927.91;5075201;28;20127;-84
2022/04/09 04:29:51;;;;;;;11.20;2.83;;;;;;;2.16;100.00;98931.38;5075284;28;20470;-83
2022/04/09 04:32:16;;;;;;;12.50;3.20;;;;;;;2.25;100.00;98920.66;5076032;28;20039;-84
2022/04/09 04:34:44;;;;;;;15.30;3.15;;;;;;;2.18;100.00;98925.19;5075039;28;20111;-83
2022/04/09 04:37:10;;;;;;;14.52;2.97;;;;;;;2.10;100.00;98935.84;5074765;28;20020;-84
2022/04/09 04:39:35;;;;;;;11.45;3.00;;;;;;;2.09;100.00;98935.84;5076589;28;20090;-84
2022/04/09 04:42:00;;;;;;;9.15;2.95;;;;;;;2.04;100.00;98943.84;5074471;28;20175;-83
2022/04/09 04:44:26;;;;;;;11.65;3.28;;;;;;;2.10;100.00;98956.03;5076237;28;20473;-83
2022/04/09 04:46:51;;;;;;;7.43;2.65;;;;;;;2.06;100.00;98952.56;5075466;28;20024;-84
2022/04/09 04:49:16;;;;;;;8.60;2.55;;;;;;;2.04;100.00;98959.63;5076495;28;20024;-84
2022/04/09 04:51:41;;;;;;;11.85;2.70;;;;;;;2.04;100.00;98970.16;5075846;28;20024;-83
2022/04/09 04:54:07;;;;;;;10.88;3.03;;;;;;;2.01;100.00;98968.44;5075568;28;20032;-83
2022/04/09 04:56:32;;;;;;;13.65;2.90;;;;;;;2.04;100.00;98975.44;5074269;28;20025;-82
2022/04/09 04:58:58;;;;;;;10.45;2.80;;;;;;;2.09;100.00;98984.13;5074172;28;20098;-85
2022/04/09 05:01:23;;;;;;;11.52;2.88;;;;;;;2.05;100.00;98985.09;5076462;28;20031;-83
2022/04/09 05:03:50;;;;;;;9.48;2.83;;;;;;;2.10;100.00;98991.16;5075904;28;20496;-84
2022/04/09 05:06:15;;;;;;;11.88;2.83;;;;;;;2.00;100.00;99000.09;5074271;28;20048;-82
2022/04/09 05:08:40;;;;;;;11.45;3.00;;;;;;;2.00;100.00;99007.97;5073638;28;20052;-82
2022/04/09 05:11:06;;;;;;;12.68;2.85;;;;;;;1.98;100.00;99001.88;5074840;28;20035;-82
2022/04/09 05:13:31;;;;;;;13.70;3.35;;;;;;;1.99;100.00;99004.47;5073797;28;20032;-82
2022/04/09 05:15:56;;;;;;;9.70;2.85;;;;;;;1.89;100.00;98998.47;5075153;28;20461;-81
2022/04/09 05:18:22;;;;;;;7.20;3.15;;;;;;;1.98;100.00;99007.16;5074995;28;20473;-82
2022/04/09 05:20:48;;;;;;;12.25;2.95;;;;;;;1.95;100.00;99015.97;5075244;28;20028;-83
2022/04/09 05:23:14;;;;;;;10.63;3.40;;;;;;;2.09;100.00;99021.00;5074319;28;20029;-83
2022/04/09 05:25:39;;;;;;;9.95;3.25;;;;;;;2.02;100.00;99029.88;5073908;28;20499;-83
2022/04/09 05:28:07;;;;;;;9.23;2.90;;;;;;;2.09;100.00;99035.91;5074050;28;20040;-83
2022/04/09 05:30:34;;;;;;;15.18;2.90;;;;;;;2.12;100.00;99031.50;5073593;28;20023;-83
2022/04/09 05:32:59;;;;;;;10.07;2.88;;;;;;;2.17;100.00;99038.44;5074623;28;20104;-84
2022/04/09 05:35:25;;;;;;;13.65;3.13;;;;;;;2.18;100.00;99040.19;5072545;28;20109;-84
2022/04/09 05:37:51;;;;;;;11.00;3.20;;;;;;;2.19;100.00;99042.78;5073189;28;20017;-83
2022/04/09 05:40:17;;;;;;;9.18;2.88;;;;;;;2.24;100.00;99050.66;5074007;28;20385;-84
2022/04/09 05:42:43;;;;;;;11.23;3.10;;;;;;;2.29;100.00;99048.81;5073162;28;20052;-84
2022/04/09 05:45:09;;;;;;;12.50;3.33;;;;;;;2.31;100.00;99057.56;5073209;28;20055;-84
2022/04/09 05:47:39;;;;;;;12.85;3.30;;;;;;;2.41;100.00;99053.00;5072854;28;20059;-83
2022/04/09 05:50:05;;;;;;;10.07;3.30;;;;;;;2.36;100.00;99059.22;5073273;28;20023;-84
2022/04/09 05:52:31;;;;;;;9.40;2.85;;;;;;;2.39;100.00;99062.69;5073139;28;20029;-84
2022/04/09 05:54:56;;;;;;;10.10;2.50;;;;;;;2.39;100.00;99075.00;5072895;28;20426;-84
2022/04/09 05:57:21;;;;;;;7.88;2.42;;;;;;;2.34;100.00;99073.31;5074300;28;20501;-84
2022/04/09 05:59:46;;;;;;;11.13;3.10;;;;;;;2.40;100.00;99074.09;5073462;28;20024;-82
2022/04/09 06:02:13;;;;;;;5.72;2.33;;;;;;;2.51;100.00;99081.81;5073322;28;20038;-84
2022/04/09 06:04:38;;;;;;;12.07;3.35;;;;;;;2.51;100.00;99087.97;5072912;28;20052;-84
2022/04/09 06:07:03;;;;;;;8.50;2.83;;;;;;;2.58;100.00;99095.78;5072629;28;20062;-86
2022/04/09 06:09:29;;;;;;;14.38;2.92;;;;;;;2.60;100.00;99096.63;5073549;28;20020;-84
2022/04/09 06:11:54;;;;;;;7.63;2.30;;;;;;;2.58;100.00;99093.16;5073688;28;20408;-83
2022/04/09 06:14:26;;;;;;;7.57;2.35;;;;;;;2.75;100.00;99096.38;5074098;28;20487;-85
2022/04/09 06:16:51;;;;;;;6.95;2.10;;;;;;;2.84;100.00;99097.97;5072779;28;20025;-88
2022/04/09 06:19:17;;;;;;;10.95;2.28;;;;;;;2.84;100.00;99105.88;5074039;28;20029;-86
2022/04/09 06:21:42;;;;;;;11.77;2.80;;;;;;;2.94;100.00;99101.31;5073844;28;20042;-85
2022/04/09 06:24:07;;;;;;;7.18;2.22;;;;;;;2.98;100.00;99104.78;5074134;28;20028;-85
2022/04/09 06:26:33;;;;;;;8.77;2.35;;;;;;;3.10;100.00;99117.72;5074058;28;20094;-85
2022/04/09 06:28:58;;;;;;;13.02;2.50;;;;;;;3.12;100.00;99121.22;5073975;28;20027;-83
2022/04/09 06:31:24;;;;;;;8.13;2.78;;;;;;;3.08;100.00;99118.66;5074235;28;20025;-84
2022/04/09 06:33:49;;;;;;;9.25;2.42;;;;;;;3.08;100.00;99123.94;5074200;28;20496;-85
2022/04/09 06:36:15;;;;;;;9.48;2.20;;;;;;;3.24;100.00;99128.03;5074045;28;20530;-86
2022/04/09 06:38:40;;;;;;;8.38;2.40;;;;;;;3.21;100.00;99127.22;5072482;28;20028;-84
2022/04/09 06:41:05;;;;;;;12.20;2.38;;;;;;;3.16;100.00;99132.59;5072748;28;20039;-86
2022/04/09 06:43:30;;;;;;;8.30;2.35;;;;;;;3.10;100.00;99135.31;5073119;28;20020;-85
2022/04/09 06:46:02;;;;;;;10.15;2.30;;;;;;;3.14;100.00;99137.03;5074507;28;20419;-85
2022/04/09 06:48:27;;;;;;;7.18;2.28;;;;;;;3.18;100.00;99146.63;5072709;28;20111;-84
2022/04/09 06:50:53;;;;;;;7.20;2.05;;;;;;;3.20;100.00;99158.00;5073737;28;20086;-83
2022/04/09 06:53:18;;;;;;;7.75;2.35;;;;;;;3.31;100.00;99159.56;5073229;28;20033;-83
2022/04/09 06:55:43;;;;;;;8.38;2.30;;;;;;;3.46;100.00;99159.28;5073028;28;20020;-83
2022/04/09 06:58:09;;;;;;;9.60;2.25;;;;;;;3.50;100.00;99164.53;5073029;28;20025;-83
2022/04/09 07:00:34;;;;;;;8.50;2.65;;;;;;;3.47;100.00;99165.44;5072086;28;20030;-83
2022/04/09 07:03:00;;;;;;;12.32;2.45;;;;;;;3.43;100.00;99167.25;5072280;28;20021;-84
2022/04/09 07:05:26;;;;;;;11.60;2.25;;;;;;;3.48;100.00;99179.53;5073577;28;20020;-85
2022/04/09 07:07:51;;;;;;;9.02;2.55;;;;;;;3.34;100.00;99192.06;5073509;28;20032;-84
2022/04/09 07:10:17;;;;;;;7.80;2.58;;;;;;;3.09;100.00;99184.56;5073495;28;20021;-83
2022/04/09 07:12:43;;;;;;;10.73;2.88;;;;;;;3.17;100.00;99183.59;5073879;28;20028;-86
2022/04/09 07:15:09;;;;;;;9.05;2.90;;;;;;;3.13;100.00;99193.31;5072574;28;20024;-85
2022/04/09 07:17:34;;;;;;;9.27;2.20;;;;;;;3.13;100.00;99193.31;5072961;28;20032;-83
2022/04/09 07:20:00;;;;;;;9.18;2.50;;;;;;;3.14;100.00;99197.69;5073336;28;20025;-85
2022/04/09 07:22:27;;;;;;;8.43;2.67;;;;;;;3.15;100.00;99207.34;5072962;28;20074;-84
2022/04/09 07:24:55;;;;;;;8.68;2.75;;;;;;;3.23;100.00;99209.84;5071561;28;20074;-84
2022/04/09 07:27:21;;;;;;;8.85;2.35;;;;;;;3.26;100.00;99209.78;5071517;28;20024;-85
2022/04/09 07:29:47;;;;;;;8.68;2.35;;;;;;;3.31;100.00;99205.31;5071788;28;20446;-85
2022/04/09 07:32:13;;;;;;;8.73;2.47;;;;;;;3.42;100.00;99214.81;5071787;28;20504;-85
2022/04/09 07:34:38;;;;;;;6.38;1.98;;;;;;;3.35;100.00;99219.34;5072608;28;20091;-83
2022/04/09 07:37:04;;;;;;;7.97;2.22;;;;;;;3.48;100.00;99217.31;5073093;28;20020;-84
2022/04/09 07:39:29;;;;;;;6.97;2.25;;;;;;;3.67;100.00;99217.00;5075770;28;20021;-84
2022/04/09 07:41:55;;;;;;;6.18;2.08;;;;;;;3.82;100.00;99214.94;5072308;28;20465;-84
2022/04/09 07:44:22;;;;;;;7.75;2.17;;;;;;;3.87;100.00;99216.59;5071892;28;20031;-84
2022/04/09 07:46:48;;;;;;;10.60;2.28;;;;;;;3.74;100.00;99228.28;5071994;28;20265;-84
2022/04/09 07:49:13;;;;;;;10.38;2.20;;;;;;;3.67;100.00;99219.63;5072585;28;20017;-88
2022/04/09 07:51:38;;;;;;;8.25;2.72;;;;;;;3.64;100.00;99225.84;5073612;28;20397;-82
2022/04/09 07:54:04;;;;;;;11.77;2.22;;;;;;;3.65;100.00;99238.16;5072226;28;20115;-81
2022/04/09 07:56:29;;;;;;;6.53;2.05;;;;;;;3.61;100.00;99235.59;5072189;28;20024;-84
2022/04/09 07:58:54;;;;;;;7.72;2.47;;;;;;;3.64;100.00;99249.59;5074263;28;20032;-83
2022/04/09 08:01:20;;;;;;;7.47;2.63;;;;;;;3.69;100.00;99229.25;5076794;28;20431;-84
2022/04/09 08:03:45;;;;;;;9.57;2.38;;;;;;;3.66;100.00;99249.59;5076924;28;20025;-84
2022/04/09 08:06:10;;;;;;;9.63;2.10;;;;;;;3.57;100.00;99240.06;5075246;28;20494;-83
2022/04/09 08:08:36;;;;;;;7.43;2.00;;;;;;;3.63;100.00;99253.16;5075657;28;20078;-82
2022/04/09 08:11:01;;;;;;;6.65;2.25;;;;;;;3.73;100.00;99260.91;5075199;28;20111;-83
2022/04/09 08:13:26;;;;;;;11.43;2.78;;;;;;;3.74;100.00;99259.97;5076786;28;20028;-83
2022/04/09 08:15:52;;;;;;;6.03;2.55;;;;;;;3.77;100.00;99260.81;5075254;28;20055;-83
2022/04/09 08:18:17;;;;;;;5.05;1.90;;;;;;;3.87;100.00;99256.22;5076284;28;20032;-85
2022/04/09 08:20:43;;;;;;;5.50;1.98;;;;;;;4.09;100.00;99262.88;5075134;28;20554;-82
2022/04/09 08:23:08;;;;;;;6.45;2.00;;;;;;;4.41;100.00;99261.31;5076967;28;20020;-82
2022/04/09 08:25:33;;;;;;;6.78;2.17;;;;;;;4.36;100.00;99269.34;5076557;28;20024;-83
2022/04/09 08:28:00;;;;;;;8.90;1.98;;;;;;;4.41;100.00;99268.38;5076160;28;20099;-83
2022/04/09 08:30:25;;;;;;;5.40;1.48;;;;;;;4.68;100.00;99266.94;5075946;28;20048;-83
2022/04/09 08:32:52;;;;;;;4.40;1.90;;;;;;;4.63;100.00;99262.63;5076447;28;20474;-84
2022/04/09 08:35:18;;;;;;;7.93;1.80;;;;;;;4.71;100.00;99255.41;5075917;28;20029;-85
2022/04/09 08:37:51;;;;;;;4.22;1.52;;;;;;;5.02;100.00;99265.28;5074656;28;20504;-83
2022/04/09 08:40:17;;;;;;;5.90;1.70;;;;;;;5.15;100.00;99267.63;5075950;28;20377;-84
2022/04/09 08:42:42;;;;;;;5.93;1.30;;;;;;;4.77;100.00;99271.13;5075001;28;20024;-84
2022/04/09 08:45:08;;;;;;;7.75;1.70;;;;;;;4.40;100.00;99271.94;5076010;28;20031;-82
2022/04/09 08:47:35;;;;;;;6.25;1.35;;;;;;;4.36;100.00;99290.50;5074843;28;20020;-83
2022/04/09 08:50:02;;;;;;;5.18;1.50;;;;;;;4.17;100.00;99302.34;5075743;28;20044;-83
2022/04/09 08:52:28;;;;;;;5.15;1.65;;;;;;;3.90;100.00;99306.34;5075563;28;20126;-84
2022/04/09 08:54:56;;;;;;;6.93;1.58;;;;;;;3.57;100.00;99306.94;5076050;28;20033;-82
2022/04/09 08:57:22;;;;;;;5.50;1.88;;;;;;;3.63;100.00;99300.69;5075243;28;20024;-84
2022/04/09 08:59:47;;;;;;;5.93;2.00;;;;;;;3.66;100.00;99329.66;5074375;28;20031;-82
2022/04/09 09:02:13;;;;;;;7.22;1.63;;;;;;;3.68;100.00;99319.94;5076200;28;20382;-84
2022/04/09 09:04:38;;;;;;;5.55;1.83;;;;;;;3.82;100.00;99310.88;5074402;28;20044;-84
2022/04/09 09:07:23;;;;;;;8.35;2.45;;;;;;;4.32;100.00;99309.97;5075203;28;20036;-84
2022/04/09 09:09:51;;;;;;;7.57;3.13;;;;;;;4.42;100.00;99301.84;5075350;28;20032;-81
2022/04/09 09:12:29;;;;;;;7.28;2.13;;;;;;;4.48;100.00;99312.31;5073687;28;20435;-84
2022/04/09 09:14:55;;;;;;;8.23;2.40;;;;;;;4.31;100.00;99320.56;5073928;28;20020;-82
2022/04/09 09:17:28;;;;;;;9.65;2.00;;;;;;;4.60;100.00;99328.81;5074924;28;20123;-84
2022/04/09 09:19:54;;;;;;;11.15;2.63;;;;;;;4.74;100.00;99318.78;5075649;28;20028;-83
2022/04/09 09:22:52;;;;;;;;;;;;;;;;;;;;;
2022/04/09 09:25:33;;;;;;;7.43;2.33;;;;;;;4.88;100.00;99312.34;5080787;28;20108;-86
2022/04/09 09:28:39;;;;;;;7.75;2.42;;;;;;;5.43;100.00;99322.56;5082257;28;20123;-86
2022/04/09 09:31:17;;;;;;;6.88;2.10;;;;;;;5.27;100.00;99315.88;5075202;28;20028;-84
2022/04/09 09:33:51;;;;;;;4.32;1.90;;;;;;;5.22;100.00;99313.34;5074455;28;20040;-85
2022/04/09 09:36:40;;;;;;;7.90;2.10;;;;;;;5.33;100.00;99319.28;5077102;28;20021;-84
2022/04/09 09:42:21;;;;;;;7.65;2.28;;;;;;;5.84;98.57;99299.47;5026347;28;20030;-85
2022/04/09 09:45:48;;;;;;;6.65;1.90;;;;;;;6.16;97.58;99310.16;5076957;28;20020;-86
2022/04/09 09:48:35;;;;;;;5.80;1.85;;;;;;;6.52;90.74;99311.81;5034317;28;20032;-86
2022/04/09 09:51:01;;;;;;;5.90;1.67;;;;;;;6.78;92.51;99307.50;5084171;22;20373;-81
2022/04/09 09:53:33;;;;;;;7.28;1.83;;;;;;;6.56;87.81;99319.63;5085932;28;20044;-83
2022/04/09 09:56:00;;;;;;;4.47;1.67;;;;;;;6.32;90.51;99324.72;5093394;28;20042;-79
2022/04/09 09:58:28;;;;;;;8.40;2.10;;;;;;;6.69;91.88;99313.97;5086888;28;20432;-80
2022/04/09 10:00:56;;;;;;;5.10;1.60;;;;;;;6.90;86.31;99327.50;5086590;28;20025;-81
2022/04/09 10:03:22;;;;;;;6.25;1.90;;;;;;;6.69;90.09;99319.28;5087231;28;20091;-82
2022/04/09 10:05:49;;;;;;;6.55;1.50;;;;;;;6.20;93.40;99319.75;5086317;28;20460;-80
2022/04/09 10:08:14;;;;;;;5.75;1.55;;;;;;;6.18;97.56;99305.69;5085913;28;20043;-78
2022/04/09 10:10:43;;;;;;;8.70;1.73;;;;;;;6.10;95.71;99312.06;5086843;28;20024;-80
2022/04/09 10:13:08;;;;;;;5.75;1.55;;;;;;;5.85;95.25;99333.03;5085152;28;20050;-81
2022/04/09 10:15:34;;;;;;;4.85;1.38;;;;;;;5.63;96.03;99342.38;5085258;28;20119;-81
2022/04/09 10:18:01;;;;;;;4.13;1.27;;;;;;;4.93;100.00;99328.97;5084654;28;20028;-80
2022/04/09 10:20:28;;;;;;;5.38;1.60;;;;;;;5.16;100.00;99330.22;5085135;28;20017;-81
2022/04/09 10:22:58;;;;;;;3.97;1.30;;;;;;;5.72;100.00;99327.16;5087403;28;20059;-81
2022/04/09 10:25:29;;;;;;;5.07;1.25;;;;;;;5.92;100.00;99322.22;5085338;28;20055;-80
2022/04/09 10:28:06;;;;;;;5.80;1.30;;;;;;;6.27;100.00;99334.56;5081878;28;20027;-79
2022/04/09 10:30:41;;;;;;;4.05;1.40;;;;;;;6.78;98.28;99320.75;5080657;28;20051;-79
2022/04/09 10:33:23;;;;;;;5.05;1.10;;;;;;;7.08;86.69;99335.81;5079888;28;20501;-81
2022/04/09 10:35:49;;;;;;;5.90;1.15;;;;;;;7.05;83.49;99328.81;5086944;28;20039;-81
2022/04/09 10:38:16;;;;;;;9.05;1.80;;;;;;;7.31;87.61;99340.41;5085622;28;20083;-81
2022/04/09 10:40:52;;;;;;;6.28;1.50;;;;;;;7.77;88.26;99341.59;5088384;28;20024;-82
2022/04/09 10:43:20;;;;;;;9.93;1.70;;;;;;;7.03;94.68;99333.31;5087233;28;20020;-80
2022/04/09 10:46:09;;;;;;;4.85;1.40;;;;;;;7.53;96.71;99347.66;5086498;28;20020;-80
2022/04/09 10:48:37;;;;;;;5.70;1.20;;;;;;;7.75;89.66;99344.31;5087638;28;20385;-80
2022/04/09 10:51:04;;;;;;;4.03;1.50;;;;;;;8.01;89.32;99337.25;5086937;28;20505;-81
2022/04/09 10:53:43;;;;;;;5.38;1.63;;;;;;;7.75;89.96;99335.47;5087749;28;20100;-81
2022/04/09 10:56:24;;;;;;;7.05;1.42;;;;;;;7.49;91.17;99348.69;5088242;28;20397;-80
2022/04/09 10:59:08;;;;;;;6.45;1.85;;;;;;;6.94;93.44;99355.69;5090411;28;20027;-81
2022/04/09 11:01:46;;;;;;;3.38;1.40;;;;;;;5.73;100.00;99356.25;5082989;28;20043;-80
2022/04/09 11:04:34;;;;;;;5.43;1.48;;;;;;;4.29;100.00;99354.97;5086206;28;20110;-83
2022/04/09 11:07:04;;;;;;;6.60;2.00;;;;;;;3.70;100.00;99372.72;5087467;28;20032;-83
2022/04/09 11:09:46;;;;;;;5.20;1.83;;;;;;;3.72;100.00;99355.06;5090344;28;20024;-81
2022/04/09 11:12:12;;;;;;;5.50;2.00;;;;;;;4.21;100.00;99346.31;5081388;28;20024;-82
2022/04/09 11:14:45;;;;;;;6.22;2.05;;;;;;;4.73;100.00;99343.53;5084732;28;20042;-81
2022/04/09 11:17:45;;;;;;;4.60;1.90;;;;;;;5.55;100.00;99336.38;5085985;28;20024;-82
2022/04/09 11:20:16;;;;;;;5.88;1.70;;;;;;;5.59;100.00;99333.63;5032103;28;20028;-81
2022/04/09 11:22:45;;;;;;;3.28;1.50;;;;;;;5.49;100.00;99334.75;5083197;28;20036;-82
2022/04/09 11:25:27;;;;;;;4.90;1.90;;;;;;;5.23;100.00;99353.00;5086140;28;20024;-82
2022/04/09 11:28:03;;;;;;;6.32;1.75;;;;;;;5.06;100.00;99344.59;5087177;28;20091;-83
2022/04/09 11:30:29;;;;;;;7.78;1.80;;;;;;;5.10;100.00;99348.91;5087397;28;20031;-82
2022/04/09 11:32:54;;;;;;;5.22;1.60;;;;;;;5.53;100.00;99354.97;5087732;28;20020;-83
2022/04/09 11:35:24;;;;;;;5.68;1.70;;;;;;;6.22;100.00;99340.00;5093222;28;20020;-83
2022/04/09 11:37:51;;;;;;;7.20;1.77;;;;;;;6.27;100.00;99363.75;5092028;28;20027;-81
2022/04/09 11:40:18;;;;;;;6.15;1.75;;;;;;;5.25;100.00;99361.81;5091535;28;20013;-82